Weather History for KRUT - November, 2012

Change the Weather History Date:

Wednesday, November 7, 2012

  Actual Average Record
Temperature  
Mean Temperature 28 °F -  
Max Temperature 34 °F - - ()
Min Temperature 21 °F - - ()
Degree Days  
Heating Degree Days 37    
Month to date heating degree days 204  
Since 1 July heating degree days 839  
Cooling Degree Days 0    
Month to date cooling degree days 0  
Year to date cooling degree days 411  
Moisture  
Dew Point 17 °F    
Average Humidity 62    
Maximum Humidity 77    
Minimum Humidity 47    
Precipitation  
Precipitation 0.00 in - - ()
Month to date precipitation 0.00  
Year to date precipitation 21.48  
Sea Level Pressure  
Sea Level Pressure 30.06 in    
Wind  
Wind Speed 5 mph (NNW)    
Max Wind Speed 10 mph    
Max Gust Speed 18 mph    
Visibility 10 miles    
Events      
T = Trace of Precipitation, MM = Missing Value Source: NWS Daily Summary

Daily Weather History Graph

Daily Weather History Graph

Search for Another Location

Airport or City:

Trip Planner

Search our weather history database for the weather conditions in past years. The results will help you decide how hot, cold, wet, or windy it might be!

Date:

Astronomy

Nov. 07, 2012 Rise Set
Actual Time 6:35 AM EST 4:34 PM EST
Civil Twilight 6:05 AM EST 5:04 PM EST
Nautical Twilight 5:31 AM EST 5:39 PM EST
Astronomical Twilight 4:57 AM EST 6:12 PM EST
Moon No Moon Rise 12:53 PM EST
Length of Visible Light 10h 59m
Length of Day
9h 58m
Last Quarter, 43% of the Moon is Illuminated
Nov 7
Last Quarter
Nov 13
New
Nov 20
First Quarter
Nov 28
Full
Dec 6
Last Quarter

Hourly Weather History & Observations

Time (EST) Temp. Windchill Dew Point Humidity Pressure Visibility Wind Dir Wind Speed Gust Speed Precip Events Conditions
12:16 AM 24.8 °F 17.9 °F 15.8 °F 69% 30.14 in 10.0 mi East 5.8 mph - N/A   Clear
12:35 AM 24.8 °F 15.3 °F 14.0 °F 64% 30.17 in 10.0 mi SE 9.2 mph - N/A   Clear
12:55 AM 26.6 °F 20.0 °F 14.0 °F 59% 30.18 in 10.0 mi ESE 5.8 mph - N/A   Clear
1:15 AM 28.4 °F 22.2 °F 12.2 °F 51% 30.17 in 10.0 mi SE 5.8 mph - N/A   Clear
1:35 AM 28.4 °F 23.3 °F 14.0 °F 55% 30.17 in 10.0 mi SE 4.6 mph - N/A   Clear
1:55 AM 26.6 °F 20.0 °F 12.2 °F 55% 30.17 in 10.0 mi SSE 5.8 mph - N/A   Clear
2:15 AM 28.4 °F - 12.2 °F 51% 30.16 in 10.0 mi Calm Calm - N/A   Clear
2:35 AM 26.6 °F 21.2 °F 12.2 °F 55% 30.16 in 10.0 mi SE 4.6 mph - N/A   Clear
2:55 AM 26.6 °F 20.0 °F 14.0 °F 59% 30.17 in 10.0 mi SE 5.8 mph - N/A   Clear
3:15 AM 26.6 °F 20.0 °F 14.0 °F 59% 30.16 in 10.0 mi SE 5.8 mph - N/A   Clear
3:55 AM 24.8 °F 16.9 °F 14.0 °F 64% 30.15 in 10.0 mi SE 6.9 mph - N/A   Clear
4:15 AM 24.8 °F 17.9 °F 15.8 °F 69% 30.16 in 10.0 mi SE 5.8 mph - N/A   Clear
4:35 AM 26.6 °F 21.2 °F 17.6 °F 69% 30.15 in 10.0 mi SSE 4.6 mph - N/A   Clear
4:55 AM 24.8 °F - 15.8 °F 69% 30.14 in 10.0 mi Calm Calm - N/A   Clear
5:15 AM 23.0 °F - 17.6 °F 80% 30.13 in 10.0 mi Calm Calm - N/A   Clear
5:35 AM 21.2 °F - 15.8 °F 80% 30.12 in 10.0 mi Calm Calm - N/A   Clear
5:55 AM 21.2 °F - 15.8 °F 80% 30.13 in 10.0 mi Calm Calm - N/A   Clear
6:15 AM 26.6 °F 22.6 °F 17.6 °F 69% 30.12 in 10.0 mi SE 3.5 mph - N/A   Clear
6:35 AM 26.6 °F 20.0 °F 15.8 °F 64% 30.13 in 10.0 mi SSE 5.8 mph - N/A   Clear
6:55 AM 24.8 °F - 15.8 °F 69% 30.13 in 10.0 mi Calm Calm - N/A   Clear
7:15 AM 24.8 °F 19.1 °F 17.6 °F 74% 30.13 in 10.0 mi North 4.6 mph - N/A   Clear
7:35 AM 24.8 °F - 17.6 °F 74% 30.12 in 10.0 mi Calm Calm - N/A   Clear
7:55 AM 24.8 °F - 17.6 °F 74% 30.13 in 10.0 mi Calm Calm - N/A   Clear
8:15 AM 24.8 °F - 17.6 °F 74% 30.13 in 10.0 mi Calm Calm - N/A   Clear
8:35 AM 26.6 °F - 17.6 °F 69% 30.13 in 10.0 mi Calm Calm - N/A   Clear
8:55 AM 26.6 °F 19.1 °F 15.8 °F 64% 30.12 in 10.0 mi NNW 6.9 mph - N/A   Clear
9:15 AM 26.6 °F - 17.6 °F 69% 30.12 in 10.0 mi Calm Calm - N/A   Clear
9:35 AM 26.6 °F 21.2 °F 17.6 °F 69% 30.10 in 10.0 mi NW 4.6 mph - N/A   Clear
9:55 AM 28.4 °F 23.3 °F 17.6 °F 64% 30.11 in 10.0 mi NNW 4.6 mph - N/A   Clear
10:15 AM 28.4 °F 24.6 °F 17.6 °F 64% 30.11 in 10.0 mi ENE 3.5 mph - N/A   Clear
10:35 AM 30.2 °F 26.7 °F 17.6 °F 60% 30.10 in 10.0 mi NNE 3.5 mph - N/A   Clear
10:55 AM 30.2 °F - 17.6 °F 60% 30.10 in 10.0 mi Calm Calm - N/A   Clear
11:15 AM 30.2 °F 26.7 °F 17.6 °F 60% 30.09 in 10.0 mi NNE 3.5 mph - N/A   Clear
11:35 AM 30.2 °F - 17.6 °F 60% 30.08 in 10.0 mi Calm Calm - N/A   Clear
11:55 AM 30.2 °F - 17.6 °F 60% 30.07 in 10.0 mi Calm Calm - N/A   Clear
12:15 PM 30.2 °F 25.4 °F 15.8 °F 55% 30.05 in 10.0 mi NE 4.6 mph - N/A   Clear
12:35 PM 32.0 °F 24.2 °F 14.0 °F 48% 30.03 in 10.0 mi NNW 9.2 mph - N/A   Clear
12:55 PM 32.0 °F 24.8 °F 15.8 °F 51% 30.03 in 10.0 mi NW 8.1 mph - N/A   Clear
1:15 PM 32.0 °F 24.8 °F 15.8 °F 51% 30.02 in 10.0 mi NNW 8.1 mph - N/A   Clear
1:35 PM 32.0 °F 25.6 °F 17.6 °F 55% 30.01 in 10.0 mi NW 6.9 mph - N/A   Clear
1:55 PM 32.0 °F 23.6 °F 19.4 °F 60% 30.01 in 10.0 mi NW 10.4 mph - N/A   Clear
2:15 PM 32.0 °F 25.6 °F 17.6 °F 55% 30.01 in 10.0 mi NW 6.9 mph - N/A   Clear
2:35 PM 32.0 °F 24.8 °F 19.4 °F 60% 30.00 in 10.0 mi NW 8.1 mph - N/A   Clear
2:55 PM 32.0 °F 25.6 °F 19.4 °F 60% 30.00 in 10.0 mi NW 6.9 mph - N/A   Clear
3:15 PM 33.8 °F 26.4 °F 15.8 °F 48% 30.00 in 10.0 mi NNW 9.2 mph - N/A   Clear
3:35 PM 33.8 °F 24.3 °F 15.8 °F 48% 29.99 in 10.0 mi North 13.8 mph 18.4 mph N/A   Clear
3:55 PM 32.0 °F 25.6 °F 19.4 °F 60% 30.00 in 10.0 mi NNW 6.9 mph - N/A   Clear
4:15 PM 32.0 °F 24.8 °F 19.4 °F 60% 30.00 in 10.0 mi NW 8.1 mph - N/A   Clear
4:35 PM 32.0 °F 25.6 °F 15.8 °F 51% 29.99 in 10.0 mi NW 6.9 mph - N/A   Clear
4:55 PM 32.0 °F 25.6 °F 19.4 °F 60% 30.00 in 10.0 mi NW 6.9 mph - N/A   Partly Cloudy
5:15 PM 33.8 °F 29.6 °F 15.8 °F 48% 30.00 in 10.0 mi WNW 4.6 mph - N/A   Mostly Cloudy
5:35 PM 33.8 °F 27.0 °F 15.8 °F 48% 30.01 in 10.0 mi NNW 8.1 mph - N/A   Overcast
5:55 PM 33.8 °F 27.7 °F 15.8 °F 48% 30.01 in 10.0 mi NNW 6.9 mph - N/A   Overcast
6:15 PM 32.0 °F 26.4 °F 19.4 °F 60% 30.01 in 10.0 mi North 5.8 mph - N/A   Overcast
6:35 PM 32.0 °F 27.5 °F 17.6 °F 55% 30.00 in 10.0 mi NNW 4.6 mph - N/A   Overcast
6:55 PM 32.0 °F 25.6 °F 17.6 °F 55% 30.00 in 10.0 mi NW 6.9 mph - N/A   Overcast
7:15 PM 32.0 °F 27.5 °F 17.6 °F 55% 30.00 in 10.0 mi NNW 4.6 mph - N/A   Overcast
7:35 PM 32.0 °F 24.8 °F 17.6 °F 55% 29.99 in 10.0 mi NW 8.1 mph - N/A   Overcast
7:55 PM 32.0 °F 24.8 °F 17.6 °F 55% 29.99 in 10.0 mi NW 8.1 mph - N/A   Overcast
8:35 PM 32.0 °F 24.8 °F 19.4 °F 60% 29.98 in 10.0 mi NNW 8.1 mph - N/A   Overcast
8:55 PM 30.2 °F 21.9 °F 19.4 °F 64% 29.98 in 10.0 mi NNW 9.2 mph - N/A   Overcast
9:15 PM 30.2 °F 21.9 °F 19.4 °F 64% 29.97 in 10.0 mi NNW 9.2 mph - N/A   Overcast
9:35 PM 30.2 °F 21.9 °F 21.2 °F 69% 29.96 in 10.0 mi NNW 9.2 mph - N/A   Overcast
9:55 PM 30.2 °F 21.9 °F 19.4 °F 64% 29.95 in 10.0 mi NNW 9.2 mph - N/A   Overcast
10:15 PM 30.2 °F 21.9 °F 19.4 °F 64% 29.94 in 10.0 mi NNW 9.2 mph - N/A   Overcast
10:35 PM 30.2 °F 21.9 °F 21.2 °F 69% 29.94 in 10.0 mi NNW 9.2 mph - N/A   Overcast
10:55 PM 30.2 °F 21.9 °F 19.4 °F 64% 29.93 in 10.0 mi NW 9.2 mph - N/A   Overcast
11:35 PM 30.2 °F 22.6 °F 21.2 °F 69% 29.92 in 10.0 mi NNW 8.1 mph - N/A   Overcast
11:55 PM 30.2 °F 21.9 °F 21.2 °F 69% 29.91 in 10.0 mi NNW 9.2 mph - N/A   Overcast